KIDA

Idaho Falls Regional Airport

Idaho Falls, Idaho, USA
METAR KIDA 141253Z AUTO 36003KT 10SM FU HZ CLR 11/05 A3008 RMK AO2 SLP142 T01060050
Observed Flight Rules
Aug-14 @ 12:53 UTC (51 minutes ago) Visual Flight Rules
Wind Visibility Clouds Conditions
360° at 3 knots 10 miles
  • Clear skies
  • Smoke
  • Haze
Temperatures Readings
Current 11°C / 52°F
Dewpoint 5°C / 41°F
Humidity 67%
Altimeter 30.08" Hg
Pressure 1014.2 hPa
Elevation 1453
METAR KIDA 141253Z AUTO 36003KT 10SM FU HZ CLR 11/05 A3008 RMK AO2 SLP142 T01060050
Observed Flight Rules
Aug-14 @ 12:53 UTC
(51 minutes ago)
VFR
Wind Visibility
360° at 3 knots 10 miles
Clouds
  • Clear skies
Conditions
  • Smoke
  • Haze
Temperature Dewpoint
11°C / 52°F 5°C / 41°F
Humidity Altimeter Pressure
67% 30.08" Hg 1014.2 hPa